createdAt,value
2022-10-22T00:03:42.432Z,18.38
2022-10-22T00:08:44.011Z,18.40
2022-10-22T00:18:53.281Z,21.77
2022-10-22T00:23:55.629Z,21.10
2022-10-22T00:28:57.245Z,22.77
2022-10-22T00:33:58.653Z,19.95
2022-10-22T00:39:00.081Z,22.73
2022-10-22T00:44:05.245Z,20.30
2022-10-22T00:49:06.855Z,22.33
2022-10-22T00:54:09.017Z,20.88
2022-10-22T00:59:13.266Z,22.20
2022-10-22T01:04:14.904Z,23.60
2022-10-22T01:09:20.398Z,20.45
2022-10-22T01:15:00.097Z,19.23
2022-10-22T01:20:19.781Z,17.48
2022-10-22T01:25:28.178Z,15.93
2022-10-22T01:30:30.023Z,19.52
2022-10-22T01:35:36.864Z,20.80
2022-10-22T01:40:39.856Z,22.02
2022-10-22T01:45:48.590Z,20.75
2022-10-22T01:51:06.191Z,18.27
2022-10-22T01:56:24.898Z,22.77
2022-10-22T02:01:39.677Z,24.38
2022-10-22T02:06:43.661Z,21.60
2022-10-22T02:11:46.258Z,24.60
2022-10-22T02:16:50.065Z,24.33
2022-10-22T02:21:52.788Z,25.95
2022-10-22T02:27:15.829Z,26.48
2022-10-22T02:32:22.910Z,27.03
2022-10-22T02:37:25.849Z,26.42
2022-10-22T02:42:28.411Z,27.58
2022-10-22T02:47:29.878Z,27.85
2022-10-22T02:52:31.315Z,27.50
2022-10-22T02:57:32.937Z,28.35
2022-10-22T03:02:34.570Z,30.27
2022-10-22T03:07:36.081Z,30.10
2022-10-22T03:12:37.495Z,30.38
2022-10-22T03:17:39.236Z,29.08
2022-10-22T03:22:43.004Z,28.77
2022-10-22T03:27:45.221Z,26.97
2022-10-22T03:32:46.629Z,29.80
2022-10-22T03:37:48.213Z,30.17
2022-10-22T03:42:49.921Z,30.15
2022-10-22T03:47:51.313Z,29.92
2022-10-22T03:52:53.615Z,31.60
2022-10-22T03:57:55.050Z,33.05
2022-10-22T04:02:57.730Z,31.08
2022-10-22T04:07:59.276Z,31.17
2022-10-22T04:13:00.734Z,32.85
2022-10-22T04:18:02.159Z,27.40
2022-10-22T04:23:03.701Z,29.98
2022-10-22T04:28:09.135Z,27.33
2022-10-22T04:33:10.548Z,25.05
2022-10-22T04:38:12.149Z,23.35
2022-10-22T04:43:13.594Z,23.33
2022-10-22T04:48:15.038Z,23.30
2022-10-22T04:53:16.516Z,23.65
2022-10-22T04:58:18.072Z,25.98
2022-10-22T05:03:19.633Z,22.67
2022-10-22T05:08:21.206Z,21.65
2022-10-22T05:13:22.828Z,21.80
2022-10-22T05:18:24.248Z,21.45
2022-10-22T05:23:25.694Z,21.08
2022-10-22T05:28:27.220Z,23.15
2022-10-22T05:33:30.546Z,22.75
2022-10-22T05:38:33.244Z,22.95
2022-10-22T05:43:35.752Z,24.27
2022-10-22T05:48:37.844Z,27.70
2022-10-22T05:53:41.403Z,25.88
2022-10-22T05:58:44.329Z,25.73
2022-10-22T06:03:47.009Z,25.38
2022-10-22T06:08:50.612Z,26.55
2022-10-22T06:13:52.186Z,24.50
2022-10-22T06:18:53.610Z,27.65
2022-10-22T06:23:59.594Z,25.42
2022-10-22T06:29:01.184Z,28.23
2022-10-22T06:34:08.751Z,27.13
2022-10-22T06:39:15.006Z,24.65
2022-10-22T06:44:18.541Z,25.02
2022-10-22T06:49:21.080Z,28.00
2022-10-22T06:54:23.127Z,26.08
2022-10-22T06:59:24.595Z,29.92
2022-10-22T07:04:26.077Z,26.25
2022-10-22T07:09:27.553Z,30.23
2022-10-22T07:14:29.933Z,29.08
2022-10-22T07:19:31.557Z,26.30
2022-10-22T07:24:33.067Z,28.58
2022-10-22T07:29:34.801Z,28.85
2022-10-22T07:34:37.625Z,31.20
2022-10-22T07:39:40.924Z,28.95
2022-10-22T07:44:42.404Z,33.97
2022-10-22T07:49:43.913Z,29.55
2022-10-22T07:54:45.390Z,34.40
2022-10-22T07:59:48.535Z,31.15
2022-10-22T08:04:50.097Z,33.72
2022-10-22T08:09:51.627Z,33.55
2022-10-22T08:14:53.357Z,35.30
2022-10-22T08:19:54.780Z,35.05
2022-10-22T08:24:56.260Z,34.75
2022-10-22T08:29:57.674Z,36.53
2022-10-22T08:34:59.168Z,38.22
2022-10-22T08:40:00.735Z,37.17
2022-10-22T08:45:12.929Z,38.97
2022-10-22T08:50:30.948Z,39.20
2022-10-22T08:55:36.607Z,38.08
2022-10-22T09:00:46.761Z,37.53
2022-10-22T09:06:08.705Z,36.60
2022-10-22T09:11:12.932Z,34.15
2022-10-22T09:16:20.346Z,31.80
2022-10-22T09:21:34.276Z,31.63
2022-10-22T09:26:38.703Z,32.45
2022-10-22T09:31:40.287Z,27.90
2022-10-22T09:36:41.902Z,27.40
2022-10-22T09:41:43.370Z,25.42
2022-10-22T09:46:45.952Z,24.13
2022-10-22T09:51:58.677Z,25.35
2022-10-22T09:57:13.633Z,22.52
2022-10-22T10:02:33.598Z,21.23
2022-10-22T10:07:39.735Z,21.50
2022-10-22T10:12:56.610Z,15.50
2022-10-22T10:18:09.701Z,11.40
2022-10-22T10:23:28.376Z,10.10
2022-10-22T10:28:40.025Z,9.48
2022-10-22T10:34:00.470Z,11.20
2022-10-22T10:39:13.898Z,8.52
2022-10-22T10:44:37.766Z,7.25
2022-10-22T10:49:39.291Z,7.30
2022-10-22T10:54:50.041Z,6.45
2022-10-22T11:00:04.626Z,6.07
2022-10-22T11:05:37.532Z,6.40
2022-10-22T11:10:47.830Z,6.70
2022-10-22T11:15:59.521Z,5.72
2022-10-22T11:21:17.438Z,6.00
2022-10-22T11:26:46.795Z,6.10
2022-10-22T11:36:54.858Z,4.47
2022-10-22T11:47:13.877Z,5.47
2022-10-22T11:52:25.922Z,4.30
2022-10-22T11:57:39.243Z,5.07
2022-10-22T12:02:43.764Z,5.10
2022-10-22T12:07:57.177Z,4.57
2022-10-22T12:13:12.645Z,6.10
2022-10-22T12:18:15.171Z,7.13
2022-10-22T12:23:17.205Z,7.20
2022-10-22T12:28:18.976Z,6.32
2022-10-22T12:33:22.747Z,7.50
2022-10-22T12:43:29.678Z,7.65
2022-10-22T12:48:37.180Z,6.90
2022-10-22T12:53:51.683Z,7.05
2022-10-22T12:59:03.773Z,7.18
2022-10-22T13:04:05.737Z,7.45
2022-10-22T13:09:16.458Z,6.72
2022-10-22T13:14:19.579Z,8.93
2022-10-22T13:19:41.763Z,7.32
2022-10-22T13:24:49.252Z,6.43
2022-10-22T13:29:50.908Z,6.32
2022-10-22T13:34:52.417Z,5.90
2022-10-22T13:39:53.904Z,6.38
2022-10-22T13:44:55.338Z,5.97
2022-10-22T13:49:59.573Z,5.93
2022-10-22T13:55:01.126Z,5.28
2022-10-22T14:00:02.768Z,5.97
2022-10-22T14:05:08.503Z,6.20
2022-10-22T14:10:17.804Z,5.57
2022-10-22T14:15:26.221Z,6.68
2022-10-22T14:20:32.761Z,5.28
2022-10-22T14:25:34.305Z,7.13
2022-10-22T14:30:35.849Z,7.03
2022-10-22T14:35:37.331Z,5.60
2022-10-22T14:40:40.085Z,5.80
2022-10-22T14:45:41.655Z,5.68
2022-10-22T14:50:44.542Z,6.05
2022-10-22T14:55:48.993Z,6.93
2022-10-22T15:00:50.477Z,5.10
2022-10-22T15:05:53.717Z,5.72
2022-10-22T15:11:01.017Z,5.00
2022-10-22T15:16:06.390Z,7.00
2022-10-22T15:21:16.342Z,6.90
2022-10-22T15:26:17.952Z,18.13
2022-10-22T15:31:49.528Z,8.63
2022-10-22T15:36:53.381Z,13.63
2022-10-22T15:41:55.675Z,13.43
2022-10-22T15:46:58.264Z,11.30
2022-10-22T15:51:59.800Z,7.82
2022-10-22T15:57:08.549Z,7.72
2022-10-22T16:02:11.483Z,4.43
2022-10-22T16:07:13.102Z,5.18
2022-10-22T16:12:17.179Z,4.90
2022-10-22T16:17:19.018Z,6.10
2022-10-22T16:22:20.461Z,9.82
2022-10-22T16:27:21.961Z,5.55
2022-10-22T16:32:23.582Z,5.68
2022-10-22T16:37:25.075Z,5.82
2022-10-22T16:42:26.569Z,5.13
2022-10-22T16:47:28.010Z,5.25
2022-10-22T16:52:29.416Z,5.97
2022-10-22T16:57:31.884Z,6.10
2022-10-22T17:02:33.428Z,6.57
2022-10-22T17:07:34.929Z,6.22
2022-10-22T17:12:36.592Z,6.18
2022-10-22T17:17:38.389Z,6.78
2022-10-22T17:22:40.159Z,6.90
2022-10-22T17:27:44.287Z,5.63
2022-10-22T17:32:46.039Z,4.38
2022-10-22T17:37:47.455Z,5.60
2022-10-22T17:42:49.533Z,4.85
2022-10-22T17:47:52.141Z,5.22
2022-10-22T17:52:53.682Z,3.40
2022-10-22T17:57:55.142Z,4.40
2022-10-22T18:02:56.576Z,5.70
2022-10-22T18:07:58.046Z,6.85
2022-10-22T18:12:59.558Z,7.20
2022-10-22T18:18:01.018Z,7.50
2022-10-22T18:23:03.594Z,8.25
2022-10-22T18:28:05.163Z,8.65
2022-10-22T18:33:07.436Z,7.88
2022-10-22T18:38:10.022Z,8.30
2022-10-22T18:43:11.549Z,7.75
2022-10-22T18:48:15.889Z,5.55
2022-10-22T18:58:18.788Z,4.97
2022-10-22T19:03:20.299Z,3.40
2022-10-22T19:08:21.720Z,2.47
2022-10-22T19:13:25.435Z,2.40
2022-10-22T19:18:27.190Z,1.83
2022-10-22T19:23:32.156Z,2.10
2022-10-22T19:28:34.039Z,2.55
2022-10-22T19:33:36.516Z,2.65
2022-10-22T19:38:39.872Z,2.20
2022-10-22T19:43:42.920Z,2.53
2022-10-22T19:53:47.379Z,4.20
2022-10-22T19:58:48.840Z,3.80
2022-10-22T20:03:50.348Z,3.92
2022-10-22T20:08:55.405Z,4.35
2022-10-22T20:13:58.340Z,5.57
2022-10-22T20:19:02.176Z,6.70
2022-10-22T20:24:04.149Z,6.97
2022-10-22T20:29:05.731Z,8.52
2022-10-22T20:34:07.220Z,7.57
2022-10-22T20:39:11.946Z,8.07
2022-10-22T20:44:16.376Z,7.60
2022-10-22T20:54:20.128Z,7.20
2022-10-22T20:59:21.690Z,6.20
2022-10-22T21:04:23.249Z,6.40
2022-10-22T21:09:25.164Z,6.00
2022-10-22T21:14:26.651Z,4.90
2022-10-22T21:19:28.253Z,5.88
2022-10-22T21:24:29.860Z,4.90
2022-10-22T21:29:31.380Z,7.40
2022-10-22T21:34:38.100Z,7.10
2022-10-22T21:39:42.132Z,7.68
2022-10-22T21:44:43.949Z,7.70
2022-10-22T21:49:45.366Z,7.05
2022-10-22T21:54:46.878Z,8.18
2022-10-22T21:59:48.325Z,9.85
2022-10-22T22:04:52.454Z,9.30
2022-10-22T22:09:54.087Z,9.40
2022-10-22T22:14:55.539Z,9.60
2022-10-22T22:19:56.998Z,8.23
2022-10-22T22:24:58.395Z,8.45
2022-10-22T22:29:59.847Z,9.32
2022-10-22T22:35:01.389Z,7.78
2022-10-22T22:40:04.581Z,7.85
2022-10-22T22:45:06.432Z,8.27
2022-10-22T22:50:08.160Z,7.68
2022-10-22T22:55:10.731Z,7.93
2022-10-22T23:00:13.245Z,6.90
2022-10-22T23:05:14.694Z,6.53
2022-10-22T23:10:16.335Z,6.32
2022-10-22T23:15:17.829Z,5.95
2022-10-22T23:20:19.284Z,5.55
2022-10-22T23:25:20.716Z,5.28
2022-10-22T23:30:22.197Z,4.85
2022-10-22T23:35:23.674Z,4.57
2022-10-22T23:40:25.089Z,4.03
2022-10-22T23:45:26.671Z,4.07
2022-10-22T23:50:28.652Z,4.53
2022-10-22T23:55:30.145Z,4.25
